| time (UTC) | temp F | wind direction | speed MPH | gust MPH | rain 1hr in | rain 24hr in | rain mn in | humidity % | barometer mb |
| 20260505153308 | 64 | 118 | 0.0 | 3.0 | 0.00 | 0.45 | 0.45 | 75 | 1012.1 |
| 20260505152807 | 64 | 104 | 2.0 | 4.0 | 0.00 | 0.45 | 0.45 | 74 | 1012.0 |
| 20260505152307 | 64 | 133 | 3.0 | 5.0 | 0.00 | 0.45 | 0.45 | 76 | 1012.0 |
| 20260505151807 | 64 | 167 | 1.0 | 5.0 | 0.00 | 0.45 | 0.45 | 75 | 1012.0 |
| 20260505151307 | 64 | 72 | 4.0 | 4.0 | 0.00 | 0.45 | 0.45 | 75 | 1012.0 |
| 20260505150806 | 64 | 134 | 0.0 | 5.0 | 0.00 | 0.45 | 0.45 | 77 | 1011.9 |
| 20260505140304 | 61 | 89 | 1.0 | 4.0 | 0.00 | 0.45 | 0.45 | 83 | 1012.0 |
| 20260505130303 | 61 | 97 | 2.0 | 3.0 | 0.00 | 0.45 | 0.45 | 83 | 1011.3 |
| 20260505124802 | 61 | 121 | 2.0 | 6.0 | 0.00 | 0.45 | 0.45 | 82 | 1011.2 |
| 20260505124302 | 61 | 119 | 2.0 | 4.0 | 0.00 | 0.45 | 0.45 | 83 | 1011.2 |
| 20260505123802 | 61 | 127 | 0.0 | 4.0 | 0.00 | 0.45 | 0.45 | 84 | 1011.1 |
| 20260505123302 | 61 | 128 | 0.0 | 5.0 | 0.00 | 0.45 | 0.45 | 84 | 1011.1 |
| 20260505122802 | 61 | 101 | 3.0 | 5.0 | 0.00 | 0.45 | 0.45 | 85 | 1011.0 |
| 20260505122305 | 60 | 154 | 2.0 | 4.0 | 0.00 | 0.45 | 0.45 | 85 | 1011.1 |
| 20260505121802 | 60 | 96 | 0.0 | 4.0 | 0.00 | 0.45 | 0.45 | 85 | 1011.1 |
| 20260505121302 | 60 | 93 | 2.0 | 4.0 | 0.00 | 0.45 | 0.45 | 85 | 1011.1 |
| 20260505120301 | 60 | 105 | 2.0 | 3.0 | 0.00 | 0.45 | 0.45 | 84 | 1011.0 |
| 20260505115801 | 60 | 102 | 1.0 | 3.0 | 0.00 | 0.45 | 0.45 | 85 | 1010.8 |
| 20260505115301 | 60 | 120 | 0.0 | 3.0 | 0.00 | 0.45 | 0.45 | 85 | 1010.9 |
| 20260505114801 | 60 | 142 | 1.0 | 6.0 | 0.00 | 0.45 | 0.45 | 84 | 1010.9 |
| 20260505114301 | 60 | 112 | 1.0 | 8.0 | 0.00 | 0.45 | 0.45 | 83 | 1011.0 |
| 20260505113801 | 60 | 87 | 5.0 | 8.0 | 0.00 | 0.45 | 0.45 | 84 | 1011.0 |
| 20260505113300 | 60 | 115 | 2.0 | 7.0 | 0.00 | 0.45 | 0.45 | 84 | 1011.0 |
| 20260505112800 | 60 | 134 | 2.0 | 7.0 | 0.00 | 0.45 | 0.45 | 85 | 1011.1 |
| 20260505112300 | 60 | 108 | 4.0 | 7.0 | 0.00 | 0.45 | 0.45 | 85 | 1011.1 |
| 20260505111800 | 60 | 163 | 4.0 | 6.0 | 0.00 | 0.45 | 0.45 | 86 | 1011.3 |
| 20260505110800 | 60 | 107 | 3.0 | 6.0 | 0.00 | 0.45 | 0.45 | 86 | 1011.1 |
| 20260505110300 | 60 | 94 | 2.0 | 10.0 | 0.00 | 0.45 | 0.45 | 86 | 1011.3 |
| 20260505101758 | 60 | 134 | 3.0 | 6.0 | 0.01 | 0.45 | 0.45 | 86 | 1012.1 |
| 20260505101258 | 60 | 94 | 3.0 | 6.0 | 0.01 | 0.45 | 0.45 | 85 | 1012.2 |
| 20260505100757 | 60 | 101 | 1.0 | 7.0 | 0.01 | 0.45 | 0.45 | 85 | 1012.2 |
| 20260505100257 | 60 | 106 | 4.0 | 7.0 | 0.01 | 0.45 | 0.45 | 85 | 1012.2 |
| 20260505095758 | 60 | 100 | 2.0 | 6.0 | 0.00 | 0.44 | 0.44 | 85 | 1012.2 |
| 20260505095258 | 60 | 105 | 2.0 | 7.0 | 0.00 | 0.44 | 0.44 | 85 | 1012.2 |
| 20260505094757 | 60 | 105 | 3.0 | 7.0 | 0.00 | 0.44 | 0.44 | 85 | 1012.2 |
| 20260505094257 | 60 | 109 | 3.0 | 6.0 | 0.00 | 0.44 | 0.44 | 85 | 1012.1 |
| 20260505093757 | 60 | 98 | 4.0 | 6.0 | 0.01 | 0.44 | 0.44 | 85 | 1012.2 |
| 20260505093256 | 60 | 99 | 1.0 | 6.0 | 0.03 | 0.44 | 0.44 | 86 | 1012.3 |
| 20260505092256 | 60 | 70 | 4.0 | 4.0 | 0.08 | 0.44 | 0.44 | 87 | 1012.5 |
| 20260505091756 | 60 | 88 | 3.0 | 4.0 | 0.14 | 0.44 | 0.44 | 87 | 1012.5 |
| 20260505091256 | 60 | 101 | 1.0 | 5.0 | 0.20 | 0.44 | 0.44 | 87 | 1012.7 |
| 20260505090756 | 59 | 83 | 2.0 | 5.0 | 0.24 | 0.44 | 0.44 | 87 | 1012.6 |
| 20260505085755 | 59 | 112 | 1.0 | 3.0 | 0.27 | 0.44 | 0.44 | 87 | 1012.7 |
| 20260505084755 | 59 | 147 | 2.0 | 6.0 | 0.31 | 0.44 | 0.44 | 88 | 1013.1 |
| 20260505084255 | 59 | 114 | 2.0 | 6.0 | 0.35 | 0.44 | 0.44 | 88 | 1013.0 |
| 20260505083755 | 59 | 122 | 2.0 | 6.0 | 0.36 | 0.43 | 0.43 | 88 | 1013.1 |
| 20260505083255 | 58 | 101 | 5.0 | 5.0 | 0.36 | 0.41 | 0.41 | 88 | 1013.3 |
| 20260505082754 | 59 | 131 | 2.0 | 6.0 | 0.35 | 0.38 | 0.38 | 87 | 1013.6 |
| 20260505082254 | 59 | 124 | 0.0 | 7.0 | 0.34 | 0.36 | 0.36 | 86 | 1013.5 |
| 20260505081255 | 59 | 179 | 2.0 | 9.0 | 0.24 | 0.24 | 0.24 | 84 | 1013.7 |
| 20260505080254 | 60 | 127 | 3.0 | 8.0 | 0.19 | 0.19 | 0.19 | 82 | 1013.6 |
| 20260505075754 | 60 | 133 | 4.0 | 8.0 | 0.17 | 0.17 | 0.17 | 82 | 1013.7 |
| 20260505075254 | 60 | 152 | 1.0 | 7.0 | 0.15 | 0.15 | 0.15 | 81 | 1013.6 |
| 20260505074754 | 60 | 166 | 1.0 | 7.0 | 0.13 | 0.13 | 0.13 | 79 | 1013.4 |
| 20260505074254 | 61 | 181 | 5.0 | 10.0 | 0.09 | 0.09 | 0.09 | 78 | 1013.4 |
| 20260505073753 | 61 | 144 | 1.0 | 10.0 | 0.07 | 0.07 | 0.07 | 75 | 1013.3 |
| 20260505073253 | 62 | 93 | 5.0 | 9.0 | 0.05 | 0.05 | 0.05 | 73 | 1013.4 |
| 20260505072753 | 63 | 142 | 3.0 | 13.0 | 0.03 | 0.03 | 0.03 | 70 | 1013.4 |
| 20260505072253 | 64 | 141 | 8.0 | 13.0 | 0.02 | 0.02 | 0.02 | 64 | 1013.4 |
| 20260505071753 | 66 | 161 | 1.0 | 11.0 | 0.00 | 0.00 | 0.00 | 57 | 1013.5 |
| 20260505071252 | 66 | 150 | 4.0 | 11.0 | 0.00 | 0.00 | 0.00 | 53 | 1013.5 |
| 20260505070252 | 67 | 126 | 4.0 | 10.0 | 0.00 | 0.00 | 0.00 | 51 | 1013.4 |
| 20260505065822 | 67 | 134 | 4.0 | 10.0 | 0.00 | 0.00 | 0.00 | 50 | 1013.3 |
| 20260505065252 | 67 | 111 | 3.0 | 12.0 | 0.00 | 0.00 | 0.00 | 49 | 1013.4 |
| 20260505064752 | 67 | 108 | 5.0 | 13.0 | 0.00 | 0.00 | 0.00 | 48 | 1013.2 |
| 20260505064251 | 68 | 125 | 3.0 | 13.0 | 0.00 | 0.00 | 0.00 | 47 | 1013.0 |
| 20260505063751 | 68 | 169 | 7.0 | 14.0 | 0.00 | 0.00 | 0.00 | 44 | 1012.9 |
| 20260505063251 | 68 | 160 | 6.0 | 14.0 | 0.00 | 0.00 | 0.00 | 44 | 1012.9 |
| 20260505062751 | 68 | 102 | 9.0 | 14.0 | 0.00 | 0.00 | 0.00 | 43 | 1012.8 |
| 20260505062251 | 68 | 167 | 3.0 | 14.0 | 0.00 | 0.00 | 0.00 | 43 | 1013.0 |
| 20260505061751 | 68 | 141 | 5.0 | 7.0 | 0.00 | 0.00 | 0.00 | 42 | 1013.0 |
| 20260505061251 | 68 | 170 | 2.0 | 7.0 | 0.00 | 0.00 | 0.00 | 42 | 1013.0 |
| 20260505060751 | 68 | 174 | 5.0 | 6.0 | 0.00 | 0.00 | 0.00 | 42 | 1012.9 |
| 20260505060250 | 68 | 156 | 5.0 | 10.0 | 0.00 | 0.00 | 0.00 | 43 | 1012.8 |
| 20260505055750 | 68 | 142 | 3.0 | 10.0 | 0.00 | 0.00 | 0.00 | 43 | 1013.1 |
| 20260505055250 | 68 | 113 | 5.0 | 7.0 | 0.00 | 0.00 | 0.00 | 43 | 1012.9 |
| 20260505054250 | 68 | 177 | 4.0 | 9.0 | 0.00 | 0.00 | 0.00 | 42 | 1013.0 |
| 20260505053750 | 69 | 144 | 2.0 | 9.0 | 0.00 | 0.00 | 0.00 | 42 | 1013.3 |
| 20260505052750 | 69 | 129 | 2.0 | 7.0 | 0.00 | 0.00 | 0.00 | 40 | 1013.4 |
| 20260505052249 | 69 | 151 | 4.0 | 10.0 | 0.00 | 0.00 | 0.00 | 40 | 1013.4 |
| 20260505051749 | 69 | 133 | 2.0 | 10.0 | 0.00 | 0.00 | 0.00 | 40 | 1013.4 |
| 20260505051249 | 69 | 167 | 3.0 | 10.0 | 0.00 | 0.00 | 0.00 | 39 | 1013.4 |
| 20260505050749 | 69 | 150 | 3.0 | 10.0 | 0.00 | 0.00 | 0.00 | 39 | 1013.6 |
| 20260505050249 | 69 | 168 | 3.0 | 10.0 | 0.00 | 0.00 | 0.00 | 39 | 1013.6 |
| 20260505041747 | 70 | 148 | 2.0 | 14.0 | 0.00 | 0.00 | 0.00 | 37 | 1013.1 |
| 20260505040747 | 70 | 139 | 6.0 | 8.0 | 0.00 | 0.00 | 0.00 | 36 | 1012.8 |
| 20260505040317 | 70 | 141 | 5.0 | 11.0 | 0.00 | 0.00 | 0.00 | 36 | 1012.7 |
| 20260505035817 | 70 | 135 | 6.0 | 14.0 | 0.00 | 0.00 | 0.00 | 35 | 1012.7 |
| 20260505035317 | 71 | 104 | 7.0 | 14.0 | 0.00 | 0.00 | 0.00 | 35 | 1012.8 |
| 20260505034816 | 71 | 143 | 4.0 | 13.0 | 0.00 | 0.00 | 0.00 | 35 | 1012.6 |
| 20260505034246 | 71 | 166 | 2.0 | 13.0 | 0.00 | 0.00 | 0.00 | 35 | 1012.5 |
| 20260505033817 | 71 | 129 | 3.0 | 13.0 | 0.00 | 0.00 | 0.00 | 34 | 1012.5 |
| 20260505033316 | 71 | 150 | 5.0 | 15.0 | 0.00 | 0.00 | 0.00 | 34 | 1012.3 |
| 20260505032816 | 72 | 192 | 4.0 | 15.0 | 0.00 | 0.00 | 0.00 | 34 | 1012.2 |
| 20260505032316 | 72 | 165 | 8.0 | 13.0 | 0.00 | 0.00 | 0.00 | 33 | 1012.0 |
| 20260505031816 | 73 | 127 | 5.0 | 12.0 | 0.00 | 0.00 | 0.00 | 32 | 1012.2 |
| 20260505031245 | 73 | 150 | 3.0 | 10.0 | 0.00 | 0.00 | 0.00 | 32 | 1012.1 |
| 20260505030815 | 73 | 136 | 2.0 | 11.0 | 0.00 | 0.00 | 0.00 | 31 | 1012.0 |
| 20260505030315 | 73 | 155 | 4.0 | 11.0 | 0.00 | 0.00 | 0.00 | 31 | 1012.0 |
| 20260505025815 | 73 | 214 | 8.0 | 12.0 | 0.00 | 0.00 | 0.00 | 32 | 1012.0 |
| 20260505025315 | 73 | 219 | 6.0 | 12.0 | 0.00 | 0.00 | 0.00 | 32 | 1011.6 |
| 20260505024815 | 73 | 167 | 6.0 | 13.0 | 0.00 | 0.00 | 0.00 | 32 | 1011.5 |
| 20260505024315 | 73 | 158 | 7.0 | 13.0 | 0.00 | 0.00 | 0.00 | 32 | 1011.7 |
| 20260505022814 | 74 | 140 | 1.0 | 4.0 | 0.00 | 0.00 | 0.00 | 38 | 1011.7 |
| 20260505022314 | 74 | 221 | 0.0 | 2.0 | 0.00 | 0.00 | 0.00 | 39 | 1011.7 |
| 20260505021814 | 74 | 279 | 1.0 | 2.0 | 0.00 | 0.00 | 0.00 | 39 | 1011.5 |
| 20260505021314 | 74 | 201 | 0.0 | 2.0 | 0.00 | 0.00 | 0.00 | 38 | 1011.2 |
| 20260505020814 | 74 | 211 | 0.0 | 5.0 | 0.00 | 0.00 | 0.00 | 38 | 1011.1 |
| 20260505020313 | 74 | 224 | 2.0 | 5.0 | 0.00 | 0.00 | 0.00 | 38 | 1011.0 |
| 20260505015814 | 74 | 205 | 1.0 | 4.0 | 0.00 | 0.00 | 0.00 | 38 | 1011.0 |
| 20260505015313 | 74 | 176 | 1.0 | 3.0 | 0.00 | 0.00 | 0.00 | 38 | 1010.9 |
| 20260505014813 | 74 | 222 | 1.0 | 2.0 | 0.00 | 0.00 | 0.00 | 38 | 1010.8 |
| 20260505014313 | 75 | 217 | 0.0 | 2.0 | 0.00 | 0.00 | 0.00 | 38 | 1010.8 |
| 20260505013813 | 75 | 245 | 0.0 | 2.0 | 0.00 | 0.00 | 0.00 | 38 | 1010.7 |
| 20260505013313 | 75 | 278 | 0.0 | 1.0 | 0.00 | 0.00 | 0.00 | 37 | 1011.1 |
| 20260505012812 | 75 | 274 | 0.0 | 3.0 | 0.00 | 0.00 | 0.00 | 37 | 1010.9 |
| 20260505012313 | 75 | 281 | 0.0 | 4.0 | 0.00 | 0.00 | 0.00 | 37 | 1010.8 |
| 20260505011813 | 75 | 198 | 3.0 | 4.0 | 0.00 | 0.00 | 0.00 | 37 | 1010.8 |
| 20260505010812 | 76 | 278 | 2.0 | 3.0 | 0.00 | 0.00 | 0.00 | 36 | 1011.1 |
| 20260505005811 | 76 | 286 | 0.0 | 2.0 | 0.00 | 0.00 | 0.00 | 36 | 1011.0 |
| 20260505005311 | 76 | 271 | 1.0 | 2.0 | 0.00 | 0.00 | 0.00 | 36 | 1010.9 |
| 20260505004311 | 76 | 317 | 1.0 | 7.0 | 0.00 | 0.00 | 0.00 | 36 | 1010.9 |
| 20260505003311 | 76 | 307 | 1.0 | 5.0 | 0.00 | 0.00 | 0.00 | 36 | 1011.1 |
| 20260505002811 | 76 | 287 | 1.0 | 5.0 | 0.00 | 0.00 | 0.00 | 36 | 1011.1 |
| 20260505002311 | 76 | 224 | 2.0 | 4.0 | 0.00 | 0.00 | 0.00 | 36 | 1011.1 |
| 20260505001810 | 77 | 274 | 2.0 | 5.0 | 0.00 | 0.00 | 0.00 | 35 | 1011.1 |
| 20260505001310 | 77 | 285 | 1.0 | 5.0 | 0.00 | 0.00 | 0.00 | 35 | 1011.2 |
| 20260505000310 | 77 | 277 | 2.0 | 6.0 | 0.00 | 0.00 | 0.00 | 35 | 1011.4 |
| 20260504235810 | 78 | 288 | 1.0 | 5.0 | 0.00 | 0.00 | 0.00 | 34 | 1011.4 |
| 20260504235310 | 78 | 248 | 1.0 | 7.0 | 0.00 | 0.00 | 0.00 | 33 | 1011.2 |
| 20260504234809 | 77 | 215 | 3.0 | 7.0 | 0.00 | 0.00 | 0.00 | 33 | 1011.3 |
| 20260504234309 | 77 | 278 | 1.0 | 5.0 | 0.00 | 0.00 | 0.00 | 34 | 1011.1 |
| 20260504233809 | 77 | 288 | 1.0 | 5.0 | 0.00 | 0.00 | 0.00 | 34 | 1011.0 |
| 20260504233309 | 78 | 297 | 1.0 | 6.0 | 0.00 | 0.00 | 0.00 | 33 | 1010.9 |
| 20260504232809 | 78 | 237 | 0.0 | 6.0 | 0.00 | 0.00 | 0.00 | 33 | 1010.8 |
| 20260504232309 | 78 | 163 | 0.0 | 4.0 | 0.00 | 0.00 | 0.00 | 33 | 1011.0 |
| 20260504231809 | 78 | 240 | 2.0 | 5.0 | 0.00 | 0.00 | 0.00 | 33 | 1011.1 |
| 20260504231309 | 78 | 238 | 1.0 | 8.0 | 0.00 | 0.00 | 0.00 | 33 | 1011.0 |
| 20260504230809 | 78 | 229 | 5.0 | 8.0 | 0.00 | 0.00 | 0.00 | 33 | 1011.1 |
| 20260504230308 | 78 | 249 | 2.0 | 5.0 | 0.00 | 0.00 | 0.00 | 33 | 1011.1 |
| 20260504225808 | 78 | 278 | 2.0 | 6.0 | 0.00 | 0.00 | 0.00 | 33 | 1011.0 |
| 20260504225308 | 78 | 198 | 4.0 | 6.0 | 0.00 | 0.00 | 0.00 | 33 | 1011.2 |
| 20260504224808 | 78 | 277 | 2.0 | 5.0 | 0.00 | 0.00 | 0.00 | 33 | 1011.3 |
| 20260504224308 | 78 | 202 | 3.0 | 7.0 | 0.00 | 0.00 | 0.00 | 34 | 1011.3 |
| 20260504223807 | 78 | 294 | 2.0 | 7.0 | 0.00 | 0.00 | 0.00 | 34 | 1011.2 |
| 20260504223307 | 78 | 268 | 1.0 | 6.0 | 0.00 | 0.00 | 0.00 | 34 | 1011.2 |
| 20260504222807 | 77 | 217 | 5.0 | 8.0 | 0.00 | 0.00 | 0.00 | 34 | 1011.2 |
| 20260504222307 | 77 | 211 | 4.0 | 8.0 | 0.00 | 0.00 | 0.00 | 34 | 1011.2 |
| 20260504221807 | 78 | 184 | 3.0 | 8.0 | 0.00 | 0.00 | 0.00 | 34 | 1011.2 |
| 20260504221307 | 78 | 218 | 3.0 | 6.0 | 0.00 | 0.00 | 0.00 | 35 | 1011.4 |
| 20260504220806 | 78 | 273 | 1.0 | 6.0 | 0.00 | 0.00 | 0.00 | 35 | 1011.3 |
| 20260504220307 | 78 | 226 | 5.0 | 7.0 | 0.00 | 0.00 | 0.00 | 35 | 1011.5 |
| 20260504215807 | 78 | 248 | 0.0 | 7.0 | 0.00 | 0.00 | 0.00 | 35 | 1011.8 |
| 20260504215306 | 78 | 156 | 4.0 | 7.0 | 0.00 | 0.00 | 0.00 | 35 | 1012.2 |
| 20260504214806 | 78 | 265 | 1.0 | 7.0 | 0.00 | 0.00 | 0.00 | 35 | 1012.3 |
| 20260504213806 | 78 | 278 | 1.0 | 7.0 | 0.00 | 0.00 | 0.00 | 35 | 1012.5 |
| 20260504212806 | 79 | 310 | 3.0 | 6.0 | 0.00 | 0.00 | 0.00 | 34 | 1012.5 |
| 20260504212305 | 79 | 145 | 1.0 | 7.0 | 0.00 | 0.00 | 0.00 | 34 | 1012.6 |
| 20260504211806 | 79 | 280 | 2.0 | 8.0 | 0.00 | 0.00 | 0.00 | 34 | 1012.5 |
| 20260504211305 | 79 | 331 | 1.0 | 8.0 | 0.00 | 0.00 | 0.00 | 34 | 1012.6 |
| 20260504210805 | 80 | 193 | 4.0 | 8.0 | 0.00 | 0.00 | 0.00 | 33 | 1012.5 |
| 20260504210305 | 79 | 222 | 4.0 | 9.0 | 0.00 | 0.00 | 0.00 | 33 | 1012.4 |
| 20260504205304 | 80 | 236 | 4.0 | 7.0 | 0.00 | 0.00 | 0.00 | 33 | 1012.5 |
| 20260504204805 | 80 | 221 | 3.0 | 7.0 | 0.00 | 0.00 | 0.00 | 33 | 1012.4 |
| 20260504203804 | 80 | 218 | 1.0 | 10.0 | 0.00 | 0.00 | 0.00 | 33 | 1012.3 |
| 20260504203304 | 80 | 234 | 10.0 | 10.0 | 0.00 | 0.00 | 0.00 | 33 | 1012.3 |
| 20260504202804 | 80 | 206 | 2.0 | 6.0 | 0.00 | 0.00 | 0.00 | 33 | 1012.5 |
| 20260504202305 | 80 | 207 | 3.0 | 8.0 | 0.00 | 0.00 | 0.00 | 33 | 1012.3 |
| 20260504201803 | 80 | 329 | 3.0 | 8.0 | 0.00 | 0.00 | 0.00 | 32 | 1012.2 |
| 20260504201304 | 80 | 252 | 2.0 | 6.0 | 0.00 | 0.00 | 0.00 | 32 | 1012.3 |
| 20260504200804 | 80 | 258 | 3.0 | 7.0 | 0.00 | 0.00 | 0.00 | 32 | 1012.4 |
| 20260504200303 | 80 | 193 | 0.0 | 7.0 | 0.00 | 0.00 | 0.00 | 28 | 1012.5 |
| 20260504194302 | 81 | 206 | 4.0 | 14.0 | 0.00 | 0.00 | 0.00 | 30 | 1012.8 |
| 20260504193803 | 81 | 167 | 2.0 | 13.0 | 0.00 | 0.00 | 0.00 | 29 | 1012.9 |
| 20260504193302 | 81 | 272 | 3.0 | 11.0 | 0.00 | 0.00 | 0.00 | 29 | 1012.9 |
| 20260504192803 | 81 | 204 | 7.0 | 11.0 | 0.00 | 0.00 | 0.00 | 29 | 1012.7 |
| 20260504192304 | 81 | 221 | 4.0 | 12.0 | 0.00 | 0.00 | 0.00 | 30 | 1012.6 |
| 20260504191802 | 80 | 233 | 4.0 | 12.0 | 0.00 | 0.00 | 0.00 | 30 | 1012.6 |
| 20260504191302 | 80 | 263 | 7.0 | 12.0 | 0.00 | 0.00 | 0.00 | 30 | 1012.4 |
| 20260504190801 | 80 | 183 | 3.0 | 12.0 | 0.00 | 0.00 | 0.00 | 30 | 1012.3 |
| 20260504190302 | 81 | 245 | 2.0 | 8.0 | 0.00 | 0.00 | 0.00 | 30 | 1012.5 |
| 20260504185801 | 81 | 205 | 4.0 | 10.0 | 0.00 | 0.00 | 0.00 | 30 | 1012.4 |
| 20260504185301 | 80 | 257 | 3.0 | 10.0 | 0.00 | 0.00 | 0.00 | 30 | 1012.5 |
| 20260504184301 | 80 | 255 | 3.0 | 10.0 | 0.00 | 0.00 | 0.00 | 30 | 1012.8 |
| 20260504183801 | 80 | 227 | 6.0 | 9.0 | 0.00 | 0.00 | 0.00 | 30 | 1012.7 |
| 20260504183300 | 79 | 239 | 4.0 | 9.0 | 0.00 | 0.00 | 0.00 | 29 | 1012.7 |
| 20260504182800 | 79 | 223 | 3.0 | 12.0 | 0.00 | 0.00 | 0.00 | 30 | 1012.5 |
| 20260504182300 | 79 | 193 | 3.0 | 12.0 | 0.00 | 0.00 | 0.00 | 31 | 1012.6 |
| 20260504181800 | 79 | 165 | 4.0 | 11.0 | 0.00 | 0.00 | 0.00 | 30 | 1012.7 |
| 20260504180800 | 79 | 149 | 4.0 | 10.0 | 0.00 | 0.00 | 0.00 | 31 | 1012.6 |
| 20260504180259 | 79 | 165 | 2.0 | 10.0 | 0.00 | 0.00 | 0.00 | 30 | 1012.7 |
| 20260504175800 | 79 | 226 | 2.0 | 11.0 | 0.00 | 0.00 | 0.00 | 30 | 1012.7 |
| 20260504175259 | 79 | 224 | 4.0 | 12.0 | 0.00 | 0.00 | 0.00 | 30 | 1012.7 |
| 20260504174759 | 79 | 152 | 6.0 | 12.0 | 0.00 | 0.00 | 0.00 | 30 | 1013.0 |
| 20260504174259 | 79 | 182 | 3.0 | 9.0 | 0.00 | 0.00 | 0.00 | 30 | 1012.9 |
| 20260504173759 | 79 | 160 | 1.0 | 9.0 | 0.00 | 0.00 | 0.00 | 31 | 1012.9 |
| 20260504173259 | 79 | 166 | 3.0 | 9.0 | 0.00 | 0.00 | 0.00 | 31 | 1013.1 |
| 20260504172258 | 79 | 232 | 4.0 | 11.0 | 0.00 | 0.00 | 0.00 | 30 | 1013.4 |
| 20260504171758 | 79 | 233 | 2.0 | 10.0 | 0.00 | 0.00 | 0.00 | 30 | 1013.4 |
| 20260504171258 | 79 | 162 | 4.0 | 10.0 | 0.00 | 0.00 | 0.00 | 30 | 1013.4 |
| 20260504170758 | 79 | 196 | 1.0 | 13.0 | 0.00 | 0.00 | 0.00 | 31 | 1013.4 |
| 20260504160256 | 77 | 223 | 2.0 | 8.0 | 0.00 | 0.00 | 0.00 | 36 | 1013.1 |